sensor_id;sensor_type;location;lat;lon;timestamp;pressure;altitude;pressure_sealevel;temperature;humidity
13314;BME280;6725;48.112;11.604;2022-10-17T00:00:11;95122.38;;;12.85;100.00
13314;BME280;6725;48.112;11.604;2022-10-17T00:02:36;95124.44;;;12.81;100.00
13314;BME280;6725;48.112;11.604;2022-10-17T00:05:02;95121.16;;;12.70;100.00
13314;BME280;6725;48.112;11.604;2022-10-17T00:07:29;95121.22;;;12.66;100.00
13314;BME280;6725;48.112;11.604;2022-10-17T00:09:54;95130.72;;;12.62;100.00
13314;BME280;6725;48.112;11.604;2022-10-17T00:12:19;95130.00;;;12.58;100.00
13314;BME280;6725;48.112;11.604;2022-10-17T00:14:45;95138.66;;;12.56;100.00
13314;BME280;6725;48.112;11.604;2022-10-17T00:17:10;95137.88;;;12.56;100.00
13314;BME280;6725;48.112;11.604;2022-10-17T00:19:35;95131.22;;;12.57;100.00
13314;BME280;6725;48.112;11.604;2022-10-17T00:22:01;95136.34;;;12.55;100.00
13314;BME280;6725;48.112;11.604;2022-10-17T00:24:26;95145.75;;;12.54;100.00
13314;BME280;6725;48.112;11.604;2022-10-17T00:26:51;95131.69;;;12.52;100.00
13314;BME280;6725;48.112;11.604;2022-10-17T00:29:17;95131.69;;;12.52;100.00
13314;BME280;6725;48.112;11.604;2022-10-17T00:31:42;95131.78;;;12.48;100.00
13314;BME280;6725;48.112;11.604;2022-10-17T00:34:07;95141.94;;;12.48;100.00
13314;BME280;6725;48.112;11.604;2022-10-17T00:36:33;95137.66;;;12.47;100.00
13314;BME280;6725;48.112;11.604;2022-10-17T00:38:59;95141.63;;;12.46;100.00
13314;BME280;6725;48.112;11.604;2022-10-17T00:41:30;95133.41;;;12.46;100.00
13314;BME280;6725;48.112;11.604;2022-10-17T00:44:06;95135.78;;;12.44;100.00
13314;BME280;6725;48.112;11.604;2022-10-17T00:46:37;95133.53;;;12.39;100.00
13314;BME280;6725;48.112;11.604;2022-10-17T00:49:07;95135.97;;;12.33;100.00
13314;BME280;6725;48.112;11.604;2022-10-17T00:51:46;95146.66;;;12.28;100.00
13314;BME280;6725;48.112;11.604;2022-10-17T00:54:15;95144.03;;;12.21;100.00
13314;BME280;6725;48.112;11.604;2022-10-17T00:56:41;95145.59;;;12.22;100.00
13314;BME280;6725;48.112;11.604;2022-10-17T00:59:09;95151.06;;;12.22;100.00
13314;BME280;6725;48.112;11.604;2022-10-17T01:01:35;95157.03;;;12.17;100.00
13314;BME280;6725;48.112;11.604;2022-10-17T01:04:01;95158.19;;;12.16;100.00
13314;BME280;6725;48.112;11.604;2022-10-17T01:06:26;95157.50;;;12.12;100.00
13314;BME280;6725;48.112;11.604;2022-10-17T01:08:51;95149.69;;;12.10;100.00
13314;BME280;6725;48.112;11.604;2022-10-17T01:12:00;95146.66;;;12.05;100.00
13314;BME280;6725;48.112;11.604;2022-10-17T01:14:57;95153.00;;;12.02;100.00
13314;BME280;6725;48.112;11.604;2022-10-17T01:23:22;95145.97;;;12.01;100.00
13314;BME280;6725;48.112;11.604;2022-10-17T01:34:11;95139.91;;;11.90;100.00
13314;BME280;6725;48.112;11.604;2022-10-17T01:37:00;95130.56;;;11.87;100.00
13314;BME280;6725;48.112;11.604;2022-10-17T01:39:42;95124.38;;;11.83;100.00
13314;BME280;6725;48.112;11.604;2022-10-17T01:42:38;95133.00;;;11.82;100.00
13314;BME280;6725;48.112;11.604;2022-10-17T01:45:20;95113.53;;;11.80;100.00
13314;BME280;6725;48.112;11.604;2022-10-17T01:47:50;95127.66;;;11.75;100.00
13314;BME280;6725;48.112;11.604;2022-10-17T01:50:40;95117.63;;;11.68;100.00
13314;BME280;6725;48.112;11.604;2022-10-17T01:53:12;95121.47;;;11.71;100.00
13314;BME280;6725;48.112;11.604;2022-10-17T01:55:41;95125.34;;;11.73;100.00
13314;BME280;6725;48.112;11.604;2022-10-17T01:58:28;95115.25;;;11.70;100.00
13314;BME280;6725;48.112;11.604;2022-10-17T02:00:58;95116.84;;;11.68;100.00
13314;BME280;6725;48.112;11.604;2022-10-17T02:03:26;95115.28;;;11.67;100.00
13314;BME280;6725;48.112;11.604;2022-10-17T02:05:52;95118.41;;;11.69;100.00
13314;BME280;6725;48.112;11.604;2022-10-17T02:08:28;95119.97;;;11.66;100.00
13314;BME280;6725;48.112;11.604;2022-10-17T02:10:59;95126.66;;;11.65;100.00
13314;BME280;6725;48.112;11.604;2022-10-17T02:13:50;95113.06;;;11.62;100.00
13314;BME280;6725;48.112;11.604;2022-10-17T02:24:38;95109.28;;;11.52;100.00
13314;BME280;6725;48.112;11.604;2022-10-17T02:29:48;95116.41;;;11.46;100.00
13314;BME280;6725;48.112;11.604;2022-10-17T02:32:42;95120.38;;;11.42;100.00
13314;BME280;6725;48.112;11.604;2022-10-17T02:35:12;95130.66;;;11.34;100.00
13314;BME280;6725;48.112;11.604;2022-10-17T02:37:40;95132.22;;;11.32;100.00
13314;BME280;6725;48.112;11.604;2022-10-17T02:40:07;95132.22;;;11.32;100.00
13314;BME280;6725;48.112;11.604;2022-10-17T02:42:34;95138.19;;;11.27;100.00
13314;BME280;6725;48.112;11.604;2022-10-17T02:45:01;95136.25;;;11.24;100.00
13314;BME280;6725;48.112;11.604;2022-10-17T02:47:45;95139.41;;;11.22;100.00
13314;BME280;6725;48.112;11.604;2022-10-17T02:50:14;95141.00;;;11.20;100.00
13314;BME280;6725;48.112;11.604;2022-10-17T02:52:46;95139.47;;;11.19;100.00
13314;BME280;6725;48.112;11.604;2022-10-17T02:55:18;95144.94;;;11.19;100.00
13314;BME280;6725;48.112;11.604;2022-10-17T02:57:49;95134.81;;;11.16;100.00
13314;BME280;6725;48.112;11.604;2022-10-17T03:00:17;95137.22;;;11.14;100.00
13314;BME280;6725;48.112;11.604;2022-10-17T03:02:46;95141.94;;;11.10;100.00
13314;BME280;6725;48.112;11.604;2022-10-17T03:05:15;95145.84;;;11.09;100.00
13314;BME280;6725;48.112;11.604;2022-10-17T03:07:40;95139.63;;;11.08;100.00
13314;BME280;6725;48.112;11.604;2022-10-17T03:10:06;95138.84;;;11.08;100.00
13314;BME280;6725;48.112;11.604;2022-10-17T03:12:32;95141.59;;;11.08;100.00
13314;BME280;6725;48.112;11.604;2022-10-17T03:14:57;95136.53;;;11.06;100.00
13314;BME280;6725;48.112;11.604;2022-10-17T03:17:22;95141.22;;;11.06;100.00
13314;BME280;6725;48.112;11.604;2022-10-17T03:19:48;95136.94;;;11.05;100.00
13314;BME280;6725;48.112;11.604;2022-10-17T03:22:13;95139.69;;;11.05;100.00
13314;BME280;6725;48.112;11.604;2022-10-17T03:24:38;95146.75;;;11.02;100.00
13314;BME280;6725;48.112;11.604;2022-10-17T03:27:04;95138.94;;;11.01;100.00
13314;BME280;6725;48.112;11.604;2022-10-17T03:29:29;95148.44;;;10.93;100.00
13314;BME280;6725;48.112;11.604;2022-10-17T03:31:55;95143.72;;;10.93;100.00
13314;BME280;6725;48.112;11.604;2022-10-17T03:34:20;95145.31;;;10.91;100.00
13314;BME280;6725;48.112;11.604;2022-10-17T03:36:46;95148.53;;;10.86;100.00
13314;BME280;6725;48.112;11.604;2022-10-17T03:39:11;95156.31;;;10.87;100.00
13314;BME280;6725;48.112;11.604;2022-10-17T03:41:36;95156.34;;;10.84;100.00
13314;BME280;6725;48.112;11.604;2022-10-17T03:44:02;95145.81;;;10.86;100.00
13314;BME280;6725;48.112;11.604;2022-10-17T03:46:27;95155.94;;;10.85;100.00
13314;BME280;6725;48.112;11.604;2022-10-17T03:48:53;95161.81;;;10.84;100.00
13314;BME280;6725;48.112;11.604;2022-10-17T03:51:18;95157.53;;;10.83;100.00
13314;BME280;6725;48.112;11.604;2022-10-17T03:53:44;95166.53;;;10.80;100.00
13314;BME280;6725;48.112;11.604;2022-10-17T03:56:18;95155.28;;;10.78;100.00
13314;BME280;6725;48.112;11.604;2022-10-17T03:58:43;95158.91;;;10.68;100.00
13314;BME280;6725;48.112;11.604;2022-10-17T04:01:12;95160.44;;;10.69;100.00
13314;BME280;6725;48.112;11.604;2022-10-17T04:03:38;95151.19;;;10.63;100.00
13314;BME280;6725;48.112;11.604;2022-10-17T04:06:04;95165.66;;;10.56;100.00
13314;BME280;6725;48.112;11.604;2022-10-17T04:08:30;95165.31;;;10.54;100.00
13314;BME280;6725;48.112;11.604;2022-10-17T04:10:59;95168.44;;;10.53;100.00
13314;BME280;6725;48.112;11.604;2022-10-17T04:13:25;95168.44;;;10.53;100.00
13314;BME280;6725;48.112;11.604;2022-10-17T04:16:04;95171.66;;;10.48;100.00
13314;BME280;6725;48.112;11.604;2022-10-17T04:18:30;95175.19;;;10.45;100.00
13314;BME280;6725;48.112;11.604;2022-10-17T04:20:55;95166.34;;;10.34;100.00
13314;BME280;6725;48.112;11.604;2022-10-17T04:23:21;95171.00;;;10.37;100.00
13314;BME280;6725;48.112;11.604;2022-10-17T04:25:47;95171.72;;;10.41;100.00
13314;BME280;6725;48.112;11.604;2022-10-17T04:28:12;95174.00;;;10.46;100.00
13314;BME280;6725;48.112;11.604;2022-10-17T04:30:37;95167.75;;;10.45;100.00
13314;BME280;6725;48.112;11.604;2022-10-17T04:33:04;95166.28;;;10.37;100.00
13314;BME280;6725;48.112;11.604;2022-10-17T04:35:29;95159.31;;;10.33;100.00
13314;BME280;6725;48.112;11.604;2022-10-17T04:37:54;95157.41;;;10.30;100.00
13314;BME280;6725;48.112;11.604;2022-10-17T04:40:20;95157.78;;;10.32;100.00
13314;BME280;6725;48.112;11.604;2022-10-17T04:42:45;95156.97;;;10.35;100.00
13314;BME280;6725;48.112;11.604;2022-10-17T04:45:11;95163.88;;;10.43;100.00
13314;BME280;6725;48.112;11.604;2022-10-17T04:47:37;95169.34;;;10.43;100.00
13314;BME280;6725;48.112;11.604;2022-10-17T04:50:03;95165.47;;;10.40;100.00
13314;BME280;6725;48.112;11.604;2022-10-17T04:52:28;95166.66;;;10.39;100.00
13314;BME280;6725;48.112;11.604;2022-10-17T04:54:54;95167.41;;;10.40;100.00
13314;BME280;6725;48.112;11.604;2022-10-17T04:57:19;95175.59;;;10.40;100.00
13314;BME280;6725;48.112;11.604;2022-10-17T04:59:44;95178.34;;;10.40;100.00
13314;BME280;6725;48.112;11.604;2022-10-17T05:02:10;95168.66;;;10.35;100.00
13314;BME280;6725;48.112;11.604;2022-10-17T05:04:35;95184.25;;;10.35;100.00
13314;BME280;6725;48.112;11.604;2022-10-17T05:07:01;95178.00;;;10.34;100.00
13314;BME280;6725;48.112;11.604;2022-10-17T05:09:26;95186.59;;;10.33;100.00
13314;BME280;6725;48.112;11.604;2022-10-17T05:11:52;95194.44;;;10.31;100.00
13314;BME280;6725;48.112;11.604;2022-10-17T05:14:17;95196.78;;;10.29;100.00
13314;BME280;6725;48.112;11.604;2022-10-17T05:16:42;95192.16;;;10.26;100.00
13314;BME280;6725;48.112;11.604;2022-10-17T05:19:08;95200.75;;;10.24;100.00
13314;BME280;6725;48.112;11.604;2022-10-17T05:21:33;95200.78;;;10.21;100.00
13314;BME280;6725;48.112;11.604;2022-10-17T05:24:04;95198.44;;;10.19;100.00
13314;BME280;6725;48.112;11.604;2022-10-17T05:26:30;95199.97;;;10.20;100.00
13314;BME280;6725;48.112;11.604;2022-10-17T05:28:56;95197.25;;;10.24;100.00
13314;BME280;6725;48.112;11.604;2022-10-17T05:31:22;95201.50;;;10.25;100.00
13314;BME280;6725;48.112;11.604;2022-10-17T05:33:48;95205.44;;;10.24;100.00
13314;BME280;6725;48.112;11.604;2022-10-17T05:36:13;95196.06;;;10.25;100.00
13314;BME280;6725;48.112;11.604;2022-10-17T05:38:38;95210.81;;;10.31;100.00
13314;BME280;6725;48.112;11.604;2022-10-17T05:41:04;95211.59;;;10.31;100.00
13314;BME280;6725;48.112;11.604;2022-10-17T05:43:30;95213.81;;;10.40;100.00
13314;BME280;6725;48.112;11.604;2022-10-17T05:45:56;95219.22;;;10.47;100.00
13314;BME280;6725;48.112;11.604;2022-10-17T05:48:22;95209.66;;;10.65;100.00
13314;BME280;6725;48.112;11.604;2022-10-17T05:50:48;95210.09;;;10.94;100.00
13314;BME280;6725;48.112;11.604;2022-10-17T05:53:14;95204.78;;;11.40;100.00
13314;BME280;6725;48.112;11.604;2022-10-17T05:55:39;95195.00;;;11.69;100.00
13314;BME280;6725;48.112;11.604;2022-10-17T05:58:05;95193.44;;;12.14;100.00
13314;BME280;6725;48.112;11.604;2022-10-17T06:00:31;95191.81;;;12.59;100.00
13314;BME280;6725;48.112;11.604;2022-10-17T06:02:56;95194.78;;;13.07;100.00
13314;BME280;6725;48.112;11.604;2022-10-17T06:05:21;95203.63;;;13.50;100.00
13314;BME280;6725;48.112;11.604;2022-10-17T06:07:47;95208.69;;;13.52;100.00
13314;BME280;6725;48.112;11.604;2022-10-17T06:10:14;95199.91;;;13.92;100.00
13314;BME280;6725;48.112;11.604;2022-10-17T06:12:42;95204.69;;;14.52;100.00
13314;BME280;6725;48.112;11.604;2022-10-17T06:15:08;95207.06;;;14.50;100.00
13314;BME280;6725;48.112;11.604;2022-10-17T06:17:33;95213.16;;;14.58;100.00
13314;BME280;6725;48.112;11.604;2022-10-17T06:19:59;95216.16;;;14.63;100.00
13314;BME280;6725;48.112;11.604;2022-10-17T06:22:24;95214.25;;;14.76;100.00
13314;BME280;6725;48.112;11.604;2022-10-17T06:24:49;95222.94;;;14.75;100.00
13314;BME280;6725;48.112;11.604;2022-10-17T06:27:16;95221.28;;;14.77;100.00
13314;BME280;6725;48.112;11.604;2022-10-17T06:29:42;95216.88;;;15.08;100.00
13314;BME280;6725;48.112;11.604;2022-10-17T06:32:07;95213.13;;;15.43;100.00
13314;BME280;6725;48.112;11.604;2022-10-17T06:34:32;95210.81;;;15.54;100.00
13314;BME280;6725;48.112;11.604;2022-10-17T06:36:58;95210.25;;;15.59;100.00
13314;BME280;6725;48.112;11.604;2022-10-17T06:39:23;95204.88;;;15.81;100.00
13314;BME280;6725;48.112;11.604;2022-10-17T06:41:51;95191.84;;;16.19;100.00
13314;BME280;6725;48.112;11.604;2022-10-17T06:44:16;95193.16;;;16.61;100.00
13314;BME280;6725;48.112;11.604;2022-10-17T06:46:42;95197.38;;;17.09;100.00
13314;BME280;6725;48.112;11.604;2022-10-17T06:49:09;95202.66;;;17.68;100.00
13314;BME280;6725;48.112;11.604;2022-10-17T06:51:35;95174.88;;;18.11;100.00
13314;BME280;6725;48.112;11.604;2022-10-17T06:54:01;95151.16;;;18.94;100.00
13314;BME280;6725;48.112;11.604;2022-10-17T06:56:26;95151.16;;;18.94;100.00
13314;BME280;6725;48.112;11.604;2022-10-17T06:58:52;95105.06;;;20.16;100.00
13314;BME280;6725;48.112;11.604;2022-10-17T07:01:17;95084.38;;;20.79;100.00
13314;BME280;6725;48.112;11.604;2022-10-17T07:03:46;95066.50;;;21.09;100.00
13314;BME280;6725;48.112;11.604;2022-10-17T07:06:12;95031.69;;;22.11;100.00
13314;BME280;6725;48.112;11.604;2022-10-17T07:08:41;95649.94;;;22.15;100.00
13314;BME280;6725;48.112;11.604;2022-10-17T07:11:16;95950.47;;;22.52;100.00
13314;BME280;6725;48.112;11.604;2022-10-17T07:13:42;96015.28;;;23.30;100.00
13314;BME280;6725;48.112;11.604;2022-10-17T07:16:07;96033.28;;;23.94;100.00
13314;BME280;6725;48.112;11.604;2022-10-17T07:18:33;96056.66;;;23.96;100.00
13314;BME280;6725;48.112;11.604;2022-10-17T07:20:59;96069.28;;;23.83;100.00
13314;BME280;6725;48.112;11.604;2022-10-17T07:23:25;96075.03;;;23.79;100.00
13314;BME280;6725;48.112;11.604;2022-10-17T07:25:51;96073.41;;;23.64;100.00
13314;BME280;6725;48.112;11.604;2022-10-17T07:28:16;96073.84;;;24.04;100.00
13314;BME280;6725;48.112;11.604;2022-10-17T07:30:42;96079.06;;;24.11;100.00
13314;BME280;6725;48.112;11.604;2022-10-17T07:33:08;96080.16;;;24.75;100.00
13314;BME280;6725;48.112;11.604;2022-10-17T07:35:33;96085.69;;;24.84;100.00
13314;BME280;6725;48.112;11.604;2022-10-17T07:37:59;96087.84;;;25.18;100.00
13314;BME280;6725;48.112;11.604;2022-10-17T07:40:24;96103.25;;;25.86;95.93
13314;BME280;6725;48.112;11.604;2022-10-17T07:42:49;96102.63;;;26.11;96.91
13314;BME280;6725;48.112;11.604;2022-10-17T07:45:15;96116.53;;;26.20;92.22
13314;BME280;6725;48.112;11.604;2022-10-17T07:47:41;96117.28;;;26.21;91.60
13314;BME280;6725;48.112;11.604;2022-10-17T07:50:06;96113.97;;;26.22;88.75
13314;BME280;6725;48.112;11.604;2022-10-17T07:52:32;96111.56;;;25.95;91.85
13314;BME280;6725;48.112;11.604;2022-10-17T07:54:58;96114.75;;;26.03;88.67
13314;BME280;6725;48.112;11.604;2022-10-17T07:57:24;96115.09;;;26.85;85.77
13314;BME280;6725;48.112;11.604;2022-10-17T07:59:49;96117.78;;;27.19;83.69
13314;BME280;6725;48.112;11.604;2022-10-17T08:02:23;96124.72;;;27.49;79.76
13314;BME280;6725;48.112;11.604;2022-10-17T08:04:50;96123.53;;;28.23;76.43
13314;BME280;6725;48.112;11.604;2022-10-17T08:07:15;96126.53;;;28.46;74.02
13314;BME280;6725;48.112;11.604;2022-10-17T08:09:42;96121.56;;;28.29;73.79
13314;BME280;6725;48.112;11.604;2022-10-17T08:12:08;96128.00;;;28.89;71.38
13314;BME280;6725;48.112;11.604;2022-10-17T08:14:33;96122.56;;;29.38;68.38
13314;BME280;6725;48.112;11.604;2022-10-17T08:16:58;96123.91;;;29.59;65.78
13314;BME280;6725;48.112;11.604;2022-10-17T08:19:24;96130.22;;;30.75;60.99
13314;BME280;6725;48.112;11.604;2022-10-17T08:21:49;96130.31;;;30.26;59.64
13314;BME280;6725;48.112;11.604;2022-10-17T08:24:17;96124.94;;;29.84;60.53
13314;BME280;6725;48.112;11.604;2022-10-17T08:26:42;96119.66;;;29.11;66.01
13314;BME280;6725;48.112;11.604;2022-10-17T08:29:15;96116.22;;;29.65;63.76
13314;BME280;6725;48.112;11.604;2022-10-17T08:31:40;96117.19;;;29.35;65.93
13314;BME280;6725;48.112;11.604;2022-10-17T08:34:06;96122.88;;;30.12;63.89
13314;BME280;6725;48.112;11.604;2022-10-17T08:36:31;96137.22;;;30.25;60.86
13314;BME280;6725;48.112;11.604;2022-10-17T08:38:57;96133.88;;;29.71;63.27
13314;BME280;6725;48.112;11.604;2022-10-17T08:47:02;96125.09;;;28.67;68.13
13314;BME280;6725;48.112;11.604;2022-10-17T08:49:42;96118.59;;;28.44;69.29
13314;BME280;6725;48.112;11.604;2022-10-17T08:52:25;96124.34;;;28.72;68.75
13314;BME280;6725;48.112;11.604;2022-10-17T08:54:54;96120.66;;;28.44;70.17
13314;BME280;6725;48.112;11.604;2022-10-17T08:57:19;96119.09;;;28.96;69.04
13314;BME280;6725;48.112;11.604;2022-10-17T08:59:49;96121.09;;;29.87;66.47
13314;BME280;6725;48.112;11.604;2022-10-17T09:02:33;96124.34;;;30.57;62.32
13314;BME280;6725;48.112;11.604;2022-10-17T09:07:55;96120.50;;;30.71;59.45
13314;BME280;6725;48.112;11.604;2022-10-17T09:18:15;96131.03;;;30.43;60.72
13314;BME280;6725;48.112;11.604;2022-10-17T09:20:55;96120.81;;;30.29;62.09
13314;BME280;6725;48.112;11.604;2022-10-17T09:23:35;96118.81;;;31.49;57.13
13314;BME280;6725;48.112;11.604;2022-10-17T09:26:08;96127.41;;;31.73;53.98
13314;BME280;6725;48.112;11.604;2022-10-17T09:28:37;96126.59;;;30.80;57.19
13314;BME280;6725;48.112;11.604;2022-10-17T09:33:50;96135.63;;;30.57;58.88
13314;BME280;6725;48.112;11.604;2022-10-17T09:36:19;96133.13;;;30.37;59.44
13314;BME280;6725;48.112;11.604;2022-10-17T09:38:48;96128.06;;;30.98;55.90
13314;BME280;6725;48.112;11.604;2022-10-17T09:41:21;96129.84;;;31.01;56.85
13314;BME280;6725;48.112;11.604;2022-10-17T09:43:47;96128.47;;;31.18;56.20
13314;BME280;6725;48.112;11.604;2022-10-17T09:46:24;96131.25;;;30.78;56.11
13314;BME280;6725;48.112;11.604;2022-10-17T09:48:56;96132.56;;;30.44;58.11
13314;BME280;6725;48.112;11.604;2022-10-17T09:51:23;96130.50;;;30.61;57.66
13314;BME280;6725;48.112;11.604;2022-10-17T09:53:54;96118.66;;;30.79;60.26
13314;BME280;6725;48.112;11.604;2022-10-17T09:56:20;96129.91;;;30.90;59.15
13314;BME280;6725;48.112;11.604;2022-10-17T09:58:52;96134.31;;;30.63;57.25
13314;BME280;6725;48.112;11.604;2022-10-17T10:01:30;96135.41;;;31.23;55.44
13314;BME280;6725;48.112;11.604;2022-10-17T10:04:14;96140.41;;;30.89;56.23
13314;BME280;6725;48.112;11.604;2022-10-17T10:06:59;96145.56;;;31.48;54.06
13314;BME280;6725;48.112;11.604;2022-10-17T10:09:28;96141.06;;;32.04;54.20
13314;BME280;6725;48.112;11.604;2022-10-17T10:11:56;96142.84;;;32.61;50.49
13314;BME280;6725;48.112;11.604;2022-10-17T10:14:31;96149.25;;;32.37;50.64
13314;BME280;6725;48.112;11.604;2022-10-17T10:17:01;96150.84;;;31.63;53.19
13314;BME280;6725;48.112;11.604;2022-10-17T10:19:32;96146.69;;;31.23;56.73
13314;BME280;6725;48.112;11.604;2022-10-17T10:22:03;96146.66;;;31.34;56.71
13314;BME280;6725;48.112;11.604;2022-10-17T10:24:29;96143.47;;;31.54;54.20
13314;BME280;6725;48.112;11.604;2022-10-17T10:26:57;96140.63;;;31.60;54.23
13314;BME280;6725;48.112;11.604;2022-10-17T10:29:30;96150.03;;;31.27;55.81
13314;BME280;6725;48.112;11.604;2022-10-17T10:34:56;96149.28;;;31.21;54.00
13314;BME280;6725;48.112;11.604;2022-10-17T10:37:27;96148.19;;;30.67;57.01
13314;BME280;6725;48.112;11.604;2022-10-17T10:39:57;96137.47;;;30.10;58.99
13314;BME280;6725;48.112;11.604;2022-10-17T10:42:31;96141.59;;;29.65;60.18
13314;BME280;6725;48.112;11.604;2022-10-17T10:45:02;96138.00;;;30.09;60.70
13314;BME280;6725;48.112;11.604;2022-10-17T10:47:30;96150.00;;;30.59;59.06
13314;BME280;6725;48.112;11.604;2022-10-17T10:50:17;96139.03;;;30.22;58.87
13314;BME280;6725;48.112;11.604;2022-10-17T10:53:00;96133.66;;;30.19;58.67
13314;BME280;6725;48.112;11.604;2022-10-17T10:55:33;96134.66;;;30.27;56.88
13314;BME280;6725;48.112;11.604;2022-10-17T10:58:14;96137.66;;;29.52;59.96
13314;BME280;6725;48.112;11.604;2022-10-17T11:00:44;96142.38;;;28.49;64.81
13314;BME280;6725;48.112;11.604;2022-10-17T11:03:25;96129.63;;;27.54;71.82
13314;BME280;6725;48.112;11.604;2022-10-17T11:06:27;96125.88;;;26.92;73.22
13314;BME280;6725;48.112;11.604;2022-10-17T11:11:54;96115.44;;;25.83;86.52
13314;BME280;6725;48.112;11.604;2022-10-17T11:14:39;96119.97;;;25.66;86.86
13314;BME280;6725;48.112;11.604;2022-10-17T11:19:44;96118.72;;;25.38;83.73
13314;BME280;6725;48.112;11.604;2022-10-17T11:22:26;96129.53;;;24.92;85.30
13314;BME280;6725;48.112;11.604;2022-10-17T11:24:59;96125.41;;;24.88;87.47
13314;BME280;6725;48.112;11.604;2022-10-17T11:27:29;96115.34;;;24.81;89.66
13314;BME280;6725;48.112;11.604;2022-10-17T11:29:55;96116.59;;;24.66;91.80
13314;BME280;6725;48.112;11.604;2022-10-17T11:34:52;96115.19;;;24.61;94.99
13314;BME280;6725;48.112;11.604;2022-10-17T11:37:29;96107.00;;;24.58;95.15
13314;BME280;6725;48.112;11.604;2022-10-17T11:40:01;96110.78;;;24.46;95.89
13314;BME280;6725;48.112;11.604;2022-10-17T11:42:45;96112.81;;;24.45;96.60
13314;BME280;6725;48.112;11.604;2022-10-17T11:45:17;96115.97;;;24.38;97.22
13314;BME280;6725;48.112;11.604;2022-10-17T11:47:59;96114.25;;;24.41;97.68
13314;BME280;6725;48.112;11.604;2022-10-17T11:50:34;96125.78;;;24.34;95.19
13314;BME280;6725;48.112;11.604;2022-10-17T11:53:05;96119.25;;;24.37;95.23
13314;BME280;6725;48.112;11.604;2022-10-17T11:55:33;96117.94;;;24.47;95.51
13314;BME280;6725;48.112;11.604;2022-10-17T12:11:55;96115.53;;;24.31;92.22
13314;BME280;6725;48.112;11.604;2022-10-17T12:14:47;96111.44;;;24.41;95.40
13314;BME280;6725;48.112;11.604;2022-10-17T12:17:31;96112.72;;;24.40;90.55
13314;BME280;6725;48.112;11.604;2022-10-17T12:25:32;96109.25;;;24.45;90.38
13314;BME280;6725;48.112;11.604;2022-10-17T12:28:12;96102.53;;;24.51;91.83
13314;BME280;6725;48.112;11.604;2022-10-17T12:31:08;96106.56;;;24.50;91.42
13314;BME280;6725;48.112;11.604;2022-10-17T12:36:40;96095.75;;;24.43;93.14
13314;BME280;6725;48.112;11.604;2022-10-17T12:46:43;96099.03;;;24.42;84.31
13314;BME280;6725;48.112;11.604;2022-10-17T12:52:25;96098.75;;;24.63;85.84
13314;BME280;6725;48.112;11.604;2022-10-17T12:54:57;96103.19;;;24.70;85.57
13314;BME280;6725;48.112;11.604;2022-10-17T12:58:11;96100.50;;;24.75;83.70
13314;BME280;6725;48.112;11.604;2022-10-17T13:03:05;96099.00;;;24.89;83.96
13314;BME280;6725;48.112;11.604;2022-10-17T13:05:36;96094.94;;;24.90;83.68
13314;BME280;6725;48.112;11.604;2022-10-17T13:08:05;96100.03;;;24.91;83.03
13314;BME280;6725;48.112;11.604;2022-10-17T13:10:34;96104.69;;;24.94;80.61
13314;BME280;6725;48.112;11.604;2022-10-17T13:13:21;96100.84;;;24.92;79.66
13314;BME280;6725;48.112;11.604;2022-10-17T13:15:52;96100.72;;;25.01;77.85
13314;BME280;6725;48.112;11.604;2022-10-17T13:18:24;96099.78;;;25.04;79.31
13314;BME280;6725;48.112;11.604;2022-10-17T13:21:04;96102.28;;;25.02;75.25
13314;BME280;6725;48.112;11.604;2022-10-17T13:23:36;96094.75;;;25.08;70.12
13314;BME280;6725;48.112;11.604;2022-10-17T13:28:27;96102.88;;;25.06;69.77
13314;BME280;6725;48.112;11.604;2022-10-17T13:30:53;96107.78;;;25.11;68.54
13314;BME280;6725;48.112;11.604;2022-10-17T13:33:48;96099.59;;;25.07;70.20
13314;BME280;6725;48.112;11.604;2022-10-17T13:36:19;96106.53;;;25.12;71.24
13314;BME280;6725;48.112;11.604;2022-10-17T13:38:45;96108.09;;;25.13;72.07
13314;BME280;6725;48.112;11.604;2022-10-17T13:41:12;96102.69;;;25.09;72.27
13314;BME280;6725;48.112;11.604;2022-10-17T13:43:38;96096.31;;;25.09;70.54
13314;BME280;6725;48.112;11.604;2022-10-17T13:46:05;96097.28;;;25.06;70.54
13314;BME280;6725;48.112;11.604;2022-10-17T13:48:34;96093.91;;;25.02;70.71
13314;BME280;6725;48.112;11.604;2022-10-17T13:51:02;96094.19;;;25.04;71.59
13314;BME280;6725;48.112;11.604;2022-10-17T13:56:14;96095.81;;;24.96;73.01
13314;BME280;6725;48.112;11.604;2022-10-17T14:01:11;96096.41;;;25.00;75.24
13314;BME280;6725;48.112;11.604;2022-10-17T14:03:37;96097.66;;;24.99;75.69
13314;BME280;6725;48.112;11.604;2022-10-17T14:08:32;96098.69;;;24.87;75.02
13314;BME280;6725;48.112;11.604;2022-10-17T14:10:58;96097.81;;;24.81;76.74
13314;BME280;6725;48.112;11.604;2022-10-17T14:13:27;96097.25;;;24.77;77.17
13314;BME280;6725;48.112;11.604;2022-10-17T14:15:59;96102.53;;;24.75;77.88
13314;BME280;6725;48.112;11.604;2022-10-17T14:18:30;96099.13;;;24.71;76.52
13314;BME280;6725;48.112;11.604;2022-10-17T14:20:56;96099.63;;;24.69;77.73
13314;BME280;6725;48.112;11.604;2022-10-17T14:23:30;96097.41;;;24.73;77.79
13314;BME280;6725;48.112;11.604;2022-10-17T14:28:40;96102.81;;;24.77;77.73
13314;BME280;6725;48.112;11.604;2022-10-17T14:31:24;96101.25;;;24.76;78.82
13314;BME280;6725;48.112;11.604;2022-10-17T14:33:51;96101.25;;;24.76;78.35
13314;BME280;6725;48.112;11.604;2022-10-17T14:36:18;96103.56;;;24.63;80.50
13314;BME280;6725;48.112;11.604;2022-10-17T14:38:50;96099.25;;;24.53;84.23
13314;BME280;6725;48.112;11.604;2022-10-17T14:41:27;96109.84;;;24.49;86.11
13314;BME280;6725;48.112;11.604;2022-10-17T14:46:19;96106.16;;;24.43;88.08
13314;BME280;6725;48.112;11.604;2022-10-17T14:48:44;96109.00;;;24.34;92.22
13314;BME280;6725;48.112;11.604;2022-10-17T14:51:16;96106.88;;;24.29;91.94
13314;BME280;6725;48.112;11.604;2022-10-17T14:54:00;96112.81;;;24.22;92.83